This is the latest recevied weather packets stored in our database for station/object IN3APK-3. If no packets are shown the sender has not sent any weather packets the latest 10 day(s).
| Time | Temp. | Humidity | Pressure | Rain* | Wind** | Luminosity | Snow |
|---|---|---|---|---|---|---|---|
| 1777658926 | 17.78° C | 31% | 1018 hPa | - | - | - | - |
| 1777658276 | 21.11° C | 29% | 1017.8 hPa | - | - | - | - |
| 1777657625 | 22.78° C | 29% | 1017.6 hPa | - | - | - | - |
| 1777656974 | 23.33° C | 28% | 1017.5 hPa | - | - | - | - |
| 1777656323 | 25° C | 27% | 1017.3 hPa | - | - | - | - |
| 1777655672 | 26.11° C | 27% | 1017.3 hPa | - | - | - | - |
| 1777654369 | 27.78° C | 26% | 1017.1 hPa | - | - | - | - |
| 1777653717 | 27.78° C | 26% | 1017.1 hPa | - | - | - | - |
| 1777653066 | 27.78° C | 26% | 1017.1 hPa | - | - | - | - |
| 1777652415 | 28.89° C | 26% | 1017.2 hPa | - | - | - | - |
| 1777651110 | 28.33° C | 25% | 1017.1 hPa | - | - | - | - |
| 1777650459 | 28.89° C | 25% | 1017 hPa | - | - | - | - |
| 1777649807 | 29.44° C | 25% | 1017.1 hPa | - | - | - | - |
| 1777649156 | 30° C | 25% | 1017.1 hPa | - | - | - | - |
| 1777648504 | 30.56° C | 26% | 1017.1 hPa | - | - | - | - |
| 1777647200 | 30° C | 26% | 1017.1 hPa | - | - | - | - |
| 1777646550 | 30.56° C | 26% | 1017.2 hPa | - | - | - | - |
| 1777645898 | 30.56° C | 26% | 1017.2 hPa | - | - | - | - |
| 1777645245 | 29.44° C | 27% | 1017.2 hPa | - | - | - | - |
| 1777644592 | 28.33° C | 27% | 1017.4 hPa | - | - | - | - |
| 1777643940 | 27.78° C | 28% | 1017.4 hPa | - | - | - | - |
| 1777643288 | 26.67° C | 30% | 1017.6 hPa | - | - | - | - |
| 1777642636 | 25.56° C | 32% | 1017.7 hPa | - | - | - | - |
| 1777641983 | 25° C | 32% | 1018 hPa | - | - | - | - |
| 1777640677 | 25.56° C | 34% | 1018.1 hPa | - | - | - | - |
* Rain since midnight (hover to see other rain measurements)
** Current wind speed in m/s (hover to see current wind gust speed)